createdAt,value
2023-03-15T12:08:40.584Z,6.90
2023-03-15T12:11:31.669Z,6.90
2023-03-15T12:13:58.356Z,6.90
2023-03-15T12:16:42.059Z,7.00
2023-03-15T12:19:14.523Z,7.20
2023-03-15T12:21:45.956Z,7.50
2023-03-15T12:24:37.105Z,7.60
2023-03-15T12:27:20.723Z,7.30
2023-03-15T12:29:48.594Z,6.90
2023-03-15T12:32:17.126Z,6.60
2023-03-15T12:34:54.515Z,6.40
2023-03-15T12:37:22.551Z,6.40
2023-03-15T12:40:01.723Z,6.70
2023-03-15T12:42:31.586Z,7.10
2023-03-15T12:45:17.192Z,7.60
2023-03-15T12:47:53.500Z,7.80
2023-03-15T12:50:53.040Z,8.00
2023-03-15T12:53:38.955Z,8.20
2023-03-15T12:56:34.300Z,8.40
2023-03-15T12:59:18.756Z,8.50
2023-03-15T13:01:46.058Z,8.30
2023-03-15T13:04:14.056Z,7.50
2023-03-15T13:06:49.198Z,6.70
2023-03-15T13:09:32.454Z,5.90
2023-03-15T13:12:11.958Z,5.40
2023-03-15T13:14:46.589Z,5.10
2023-03-15T13:17:51.333Z,5.00
2023-03-15T13:20:48.412Z,4.90
2023-03-15T13:23:18.191Z,5.20
2023-03-15T13:25:51.007Z,5.60
2023-03-15T13:28:27.358Z,5.90
2023-03-15T13:30:55.864Z,6.30
2023-03-15T13:33:27.663Z,6.60
2023-03-15T13:36:03.777Z,6.80
2023-03-15T13:38:33.167Z,7.00
2023-03-15T13:41:03.558Z,7.00
2023-03-15T13:43:39.579Z,7.10
2023-03-15T13:46:06.495Z,7.30
2023-03-15T13:48:36.815Z,7.40
2023-03-15T13:51:12.277Z,7.60
2023-03-15T13:53:49.556Z,7.70
2023-03-15T13:56:20.004Z,7.90
2023-03-15T13:58:47.631Z,8.00
2023-03-15T14:01:15.514Z,7.80
2023-03-15T14:03:44.022Z,7.50
2023-03-15T14:06:19.895Z,7.30
2023-03-15T14:08:46.783Z,7.00
2023-03-15T14:11:33.139Z,6.70
2023-03-15T14:14:02.670Z,6.50
2023-03-15T14:17:03.038Z,6.40
2023-03-15T14:19:32.446Z,6.30
2023-03-15T14:22:02.038Z,6.40
2023-03-15T14:24:40.177Z,6.80
2023-03-15T14:27:28.444Z,7.30
2023-03-15T14:29:58.307Z,7.60
2023-03-15T14:32:36.414Z,7.60
2023-03-15T14:38:53.944Z,7.30
2023-03-15T14:41:46.056Z,6.80
2023-03-15T14:44:13.435Z,6.60
2023-03-15T14:46:40.249Z,6.50
2023-03-15T14:49:07.157Z,6.50
2023-03-15T14:51:33.975Z,6.60
2023-03-15T14:54:01.717Z,6.70
2023-03-15T14:56:28.610Z,6.70
2023-03-15T14:58:55.597Z,6.70
2023-03-15T15:01:27.165Z,6.60
2023-03-15T15:04:01.805Z,6.50
2023-03-15T15:06:31.966Z,6.50
2023-03-15T15:09:00.104Z,6.50
2023-03-15T15:11:27.090Z,6.60
2023-03-15T15:13:54.066Z,6.50
2023-03-15T15:16:20.950Z,6.60
2023-03-15T15:18:47.794Z,6.60
2023-03-15T15:21:16.780Z,6.60
2023-03-15T15:23:57.346Z,6.50
2023-03-15T15:26:27.870Z,6.40
2023-03-15T15:28:54.786Z,6.40
2023-03-15T15:31:23.883Z,6.40
2023-03-15T15:33:51.961Z,6.40
2023-03-15T15:36:32.585Z,6.50
2023-03-15T15:39:06.453Z,6.60
2023-03-15T15:41:33.780Z,6.70
2023-03-15T15:44:01.024Z,6.70
2023-03-15T15:46:28.056Z,6.70
2023-03-15T15:48:54.956Z,6.50
2023-03-15T15:51:34.877Z,6.40
2023-03-15T15:54:02.299Z,6.40
2023-03-15T15:56:34.658Z,6.30
2023-03-15T15:59:04.396Z,6.20
2023-03-15T16:01:31.836Z,6.20
2023-03-15T16:04:00.214Z,6.20
2023-03-15T16:06:27.339Z,6.20
2023-03-15T16:08:54.394Z,6.20
2023-03-15T16:11:21.674Z,6.20
2023-03-15T16:13:51.808Z,6.10
2023-03-15T16:16:18.748Z,6.10
2023-03-15T16:18:45.742Z,6.00
2023-03-15T16:21:38.631Z,6.00
2023-03-15T16:24:14.393Z,5.90
2023-03-15T16:26:41.542Z,5.80
2023-03-15T16:29:24.472Z,5.80
2023-03-15T16:31:51.386Z,5.70
2023-03-15T16:34:19.261Z,5.60
2023-03-15T16:36:49.365Z,5.60
2023-03-15T16:39:17.018Z,5.50
2023-03-15T16:41:43.962Z,5.50
2023-03-15T16:44:26.672Z,5.40
2023-03-15T16:46:53.620Z,5.40
2023-03-15T16:49:21.047Z,5.30
2023-03-15T16:51:51.402Z,5.30
2023-03-15T16:54:34.408Z,5.20
2023-03-15T16:57:15.973Z,5.20
2023-03-15T16:59:42.781Z,5.10
2023-03-15T17:02:36.055Z,5.10
2023-03-15T17:05:02.874Z,5.10
2023-03-15T17:07:35.116Z,5.00
2023-03-15T17:10:19.546Z,4.90
2023-03-15T17:12:46.441Z,4.90
2023-03-15T17:15:13.606Z,4.80
2023-03-15T17:17:40.433Z,4.80
2023-03-15T17:20:12.487Z,4.70
2023-03-15T17:22:43.162Z,4.60
2023-03-15T17:25:10.611Z,4.60
2023-03-15T17:27:40.676Z,4.60
2023-03-15T17:30:26.166Z,4.50
2023-03-15T17:32:54.083Z,4.50
2023-03-15T17:35:22.736Z,4.50
2023-03-15T17:37:50.539Z,4.40
2023-03-15T17:40:18.751Z,4.40
2023-03-15T17:42:45.625Z,4.40
2023-03-15T17:45:17.792Z,4.30
2023-03-15T17:47:44.663Z,4.30
2023-03-15T17:50:12.124Z,4.30
2023-03-15T17:52:39.858Z,4.30
2023-03-15T17:55:08.951Z,4.20
2023-03-15T17:57:38.359Z,4.20
2023-03-15T18:00:08.326Z,4.10
2023-03-15T18:02:35.596Z,4.10
2023-03-15T18:05:06.823Z,4.10
2023-03-15T18:07:34.211Z,4.10
2023-03-15T18:10:01.070Z,4.10
2023-03-15T18:12:27.890Z,4.10
2023-03-15T18:14:54.694Z,4.10
2023-03-15T18:17:21.613Z,4.10
2023-03-15T18:19:48.501Z,4.10
2023-03-15T18:22:16.938Z,4.10
2023-03-15T18:24:46.044Z,4.10
2023-03-15T18:27:13.848Z,4.10
2023-03-15T18:29:40.651Z,4.10
2023-03-15T18:32:07.681Z,4.00
2023-03-15T18:34:34.829Z,4.00
2023-03-15T18:37:01.727Z,4.00
2023-03-15T18:39:31.901Z,4.00
2023-03-15T18:41:58.803Z,3.90
2023-03-15T18:44:25.638Z,3.90
2023-03-15T18:46:53.880Z,3.80
2023-03-15T18:49:20.993Z,3.80
2023-03-15T18:51:47.800Z,3.70
2023-03-15T18:54:16.539Z,3.70
2023-03-15T18:56:43.562Z,3.70
2023-03-15T18:59:10.481Z,3.70
2023-03-15T19:01:38.251Z,3.70
2023-03-15T19:04:05.431Z,3.60
2023-03-15T19:06:32.330Z,3.60
2023-03-15T19:08:59.450Z,3.60
2023-03-15T19:11:27.006Z,3.50
2023-03-15T19:13:53.922Z,3.50
2023-03-15T19:16:21.477Z,3.50
2023-03-15T19:18:49.600Z,3.50
2023-03-15T19:21:18.620Z,3.50
2023-03-15T19:23:46.179Z,3.50
2023-03-15T19:26:15.788Z,3.40
2023-03-15T19:28:42.776Z,3.30
2023-03-15T19:31:11.399Z,3.30
2023-03-15T19:33:38.584Z,3.30
2023-03-15T19:36:05.767Z,3.30
2023-03-15T19:38:33.145Z,3.20
2023-03-15T20:55:44.746Z,2.20
2023-03-15T20:58:11.555Z,2.10
2023-03-15T21:00:40.968Z,2.00
2023-03-15T21:03:10.773Z,2.00
2023-03-15T21:05:38.783Z,1.90
2023-03-15T21:08:05.814Z,1.90
2023-03-15T21:10:32.764Z,1.90
2023-03-15T21:12:59.695Z,1.90
2023-03-15T21:15:26.518Z,1.80
2023-03-15T21:17:53.338Z,1.80
2023-03-15T21:20:20.208Z,1.80
2023-03-15T21:22:47.084Z,1.70
2023-03-15T21:25:13.940Z,1.70
2023-03-15T21:27:40.982Z,1.70
2023-03-15T21:30:08.674Z,1.70
2023-03-15T21:32:35.900Z,1.70
2023-03-15T21:35:03.112Z,1.70
2023-03-15T21:37:29.950Z,1.70
2023-03-15T21:39:56.727Z,1.70
2023-03-15T21:42:24.764Z,1.70
2023-03-15T21:44:53.717Z,1.80
2023-03-15T21:47:21.666Z,1.70
2023-03-15T21:49:48.497Z,1.70
2023-03-15T21:52:16.249Z,1.70
2023-03-15T21:54:44.769Z,1.70
2023-03-15T21:57:15.014Z,1.80
2023-03-15T21:59:41.892Z,1.80
2023-03-15T22:02:10.715Z,1.80
2023-03-15T22:04:37.608Z,1.70
2023-03-15T22:07:04.425Z,1.70
2023-03-15T22:09:31.352Z,1.70
2023-03-15T22:11:58.143Z,1.60
2023-03-15T22:14:25.039Z,1.60
2023-03-15T22:16:52.077Z,1.50
2023-03-15T22:19:18.954Z,1.50
2023-03-15T22:21:45.760Z,1.50
2023-03-15T22:24:12.684Z,1.40
2023-03-15T22:26:39.522Z,1.50
2023-03-15T22:29:06.320Z,1.40
2023-03-15T22:31:33.428Z,1.40
2023-03-15T22:34:00.238Z,1.30
2023-03-15T22:36:27.186Z,1.20
2023-03-15T22:38:54.044Z,1.20
2023-03-15T22:41:20.951Z,1.20
2023-03-15T22:43:47.893Z,1.20
2023-03-15T22:46:14.735Z,1.10
2023-03-15T22:48:41.659Z,1.00
2023-03-15T22:51:09.810Z,0.90
2023-03-15T22:53:36.702Z,0.90
2023-03-15T22:56:04.953Z,0.80
2023-03-15T22:58:32.061Z,0.70
2023-03-15T23:00:59.505Z,0.60
2023-03-15T23:03:26.686Z,0.50
2023-03-15T23:05:54.882Z,0.50
2023-03-15T23:08:24.383Z,0.40
2023-03-15T23:10:51.240Z,0.40
2023-03-15T23:13:18.337Z,0.30
2023-03-15T23:15:45.259Z,0.20
2023-03-15T23:18:14.553Z,0.20
2023-03-15T23:20:42.254Z,0.10
2023-03-15T23:23:09.127Z,0.10
2023-03-15T23:25:39.785Z,0.00
2023-03-15T23:28:07.490Z,-0.10
2023-03-15T23:30:36.000Z,-0.10
2023-03-15T23:33:03.916Z,-0.20
2023-03-15T23:35:31.844Z,-0.20
2023-03-15T23:37:58.885Z,-0.30
2023-03-15T23:40:26.260Z,-0.30
2023-03-15T23:42:59.144Z,-0.30
2023-03-15T23:45:27.953Z,-0.30
2023-03-15T23:47:55.010Z,-0.30
2023-03-15T23:50:25.894Z,-0.40
2023-03-15T23:52:54.050Z,-0.40
2023-03-15T23:55:21.317Z,-0.50
2023-03-15T23:57:48.214Z,-0.50
